createdAt,value
2023-01-21T00:01:36.656Z,22.77
2023-01-21T00:04:04.412Z,24.33
2023-01-21T00:06:32.169Z,29.00
2023-01-21T00:09:01.374Z,26.13
2023-01-21T00:11:29.212Z,23.53
2023-01-21T00:13:56.982Z,19.07
2023-01-21T00:16:24.743Z,28.67
2023-01-21T00:18:52.449Z,23.73
2023-01-21T00:21:20.256Z,26.73
2023-01-21T00:23:47.981Z,25.43
2023-01-21T00:26:17.427Z,24.07
2023-01-21T00:28:46.661Z,25.90
2023-01-21T00:31:14.731Z,27.07
2023-01-21T00:33:42.529Z,25.00
2023-01-21T00:36:13.135Z,27.03
2023-01-21T00:38:41.353Z,21.67
2023-01-21T00:41:11.861Z,22.93
2023-01-21T00:43:41.572Z,25.07
2023-01-21T00:46:09.986Z,26.53
2023-01-21T00:48:38.158Z,28.23
2023-01-21T00:51:06.208Z,25.00
2023-01-21T00:53:36.799Z,27.00
2023-01-21T00:56:07.731Z,24.97
2023-01-21T00:58:36.424Z,28.17
2023-01-21T01:01:08.598Z,26.53
2023-01-21T01:03:37.098Z,24.37
2023-01-21T01:06:06.574Z,25.10
2023-01-21T01:08:34.820Z,22.60
2023-01-21T01:11:02.951Z,25.53
2023-01-21T01:13:31.472Z,26.20
2023-01-21T01:16:00.217Z,29.33
2023-01-21T01:18:30.536Z,25.63
2023-01-21T01:20:58.370Z,30.43
2023-01-21T01:23:26.726Z,26.57
2023-01-21T01:25:58.801Z,24.73
2023-01-21T01:28:27.059Z,25.13
2023-01-21T01:30:54.985Z,24.43
2023-01-21T01:33:23.117Z,26.37
2023-01-21T01:35:52.717Z,30.90
2023-01-21T01:38:22.535Z,27.67
2023-01-21T01:40:52.503Z,27.60
2023-01-21T01:43:22.722Z,25.03
2023-01-21T01:45:50.747Z,28.87
2023-01-21T01:48:22.533Z,24.83
2023-01-21T01:50:52.368Z,23.87
2023-01-21T01:53:20.793Z,28.63
2023-01-21T01:55:50.722Z,23.00
2023-01-21T01:58:20.606Z,26.67
2023-01-21T02:00:48.386Z,29.50
2023-01-21T02:03:35.631Z,29.50
2023-01-21T02:06:04.957Z,28.97
2023-01-21T02:08:36.317Z,24.93
2023-01-21T02:11:07.662Z,27.60
2023-01-21T02:13:35.469Z,27.13
2023-01-21T02:16:14.672Z,25.57
2023-01-21T02:18:52.553Z,28.93
2023-01-21T02:21:44.045Z,26.30
2023-01-21T02:24:47.357Z,26.33
2023-01-21T02:27:31.052Z,29.23
2023-01-21T02:30:23.032Z,23.43
2023-01-21T02:33:23.881Z,25.37
2023-01-21T02:36:01.137Z,25.37
2023-01-21T02:38:33.452Z,27.03
2023-01-21T02:41:07.640Z,24.27
2023-01-21T02:43:44.395Z,25.83
2023-01-21T02:46:18.245Z,28.83
2023-01-21T02:48:55.626Z,29.23
2023-01-21T02:51:25.287Z,26.23
2023-01-21T02:53:53.054Z,22.67
2023-01-21T02:56:25.100Z,27.37
2023-01-21T02:58:57.710Z,23.37
2023-01-21T03:01:36.920Z,24.03
2023-01-21T03:04:33.112Z,26.67
2023-01-21T03:07:06.535Z,21.57
2023-01-21T03:09:35.338Z,24.20
2023-01-21T03:12:24.161Z,27.37
2023-01-21T03:15:19.158Z,23.93
2023-01-21T03:17:53.887Z,24.93
2023-01-21T03:20:26.551Z,27.57
2023-01-21T03:23:00.458Z,24.17
2023-01-21T03:25:31.294Z,28.03
2023-01-21T03:28:01.777Z,26.17
2023-01-21T03:30:32.395Z,26.57
2023-01-21T03:33:02.689Z,27.30
2023-01-21T03:35:35.802Z,27.40
2023-01-21T03:38:10.168Z,24.77
2023-01-21T03:40:43.138Z,26.43
2023-01-21T03:43:11.559Z,26.33
2023-01-21T03:45:45.721Z,23.63
2023-01-21T03:48:20.345Z,25.77
2023-01-21T03:50:56.463Z,27.80
2023-01-21T03:53:24.470Z,24.87
2023-01-21T03:55:52.766Z,21.37
2023-01-21T03:58:20.530Z,23.70
2023-01-21T04:00:49.260Z,26.53
2023-01-21T04:03:17.085Z,30.70
2023-01-21T04:05:44.786Z,26.37
2023-01-21T04:08:14.045Z,22.17
2023-01-21T04:10:41.806Z,26.30
2023-01-21T04:13:09.678Z,24.67
2023-01-21T04:15:37.430Z,23.57
2023-01-21T04:18:05.224Z,22.17
2023-01-21T04:20:32.925Z,28.60
2023-01-21T04:23:00.690Z,22.70
2023-01-21T04:25:29.787Z,33.37
2023-01-21T04:27:57.513Z,22.93
2023-01-21T04:30:25.263Z,26.90
2023-01-21T04:32:52.979Z,22.27
2023-01-21T04:35:20.754Z,28.73
2023-01-21T04:37:48.528Z,28.40
2023-01-21T04:40:16.661Z,25.90
2023-01-21T04:42:45.894Z,28.60
2023-01-21T04:45:13.631Z,24.40
2023-01-21T04:47:43.218Z,24.47
2023-01-21T04:50:12.743Z,25.17
2023-01-21T04:52:40.820Z,25.93
2023-01-21T04:55:10.139Z,25.50
2023-01-21T04:57:38.339Z,26.43
2023-01-21T05:00:09.756Z,26.80
2023-01-21T05:02:37.793Z,27.20
2023-01-21T05:05:06.295Z,26.17
2023-01-21T05:07:34.112Z,25.47
2023-01-21T05:10:02.117Z,25.20
2023-01-21T05:12:29.830Z,21.87
2023-01-21T05:14:58.601Z,26.10
2023-01-21T05:17:27.741Z,22.03
2023-01-21T05:19:55.535Z,26.87
2023-01-21T05:22:23.251Z,23.53
2023-01-21T05:24:50.934Z,23.73
2023-01-21T05:27:19.971Z,25.03
2023-01-21T05:29:47.765Z,23.23
2023-01-21T05:32:15.494Z,22.47
2023-01-21T05:34:44.635Z,25.50
2023-01-21T05:37:12.521Z,20.43
2023-01-21T05:39:40.359Z,27.97
2023-01-21T05:42:09.438Z,23.57
2023-01-21T05:44:37.182Z,24.50
2023-01-21T05:47:05.219Z,28.57
2023-01-21T05:49:32.986Z,29.30
2023-01-21T05:52:02.399Z,24.13
2023-01-21T05:54:30.228Z,20.83
2023-01-21T05:56:58.115Z,25.77
2023-01-21T05:59:25.984Z,25.30
2023-01-21T06:01:53.764Z,25.10
2023-01-21T06:04:23.895Z,24.03
2023-01-21T06:06:51.692Z,26.50
2023-01-21T06:09:20.867Z,23.90
2023-01-21T06:11:48.614Z,24.43
2023-01-21T06:14:16.411Z,24.07
2023-01-21T06:16:44.343Z,23.77
2023-01-21T06:19:12.265Z,24.17
2023-01-21T06:21:40.156Z,23.90
2023-01-21T06:24:08.308Z,21.83
2023-01-21T06:26:37.382Z,21.60
2023-01-21T06:29:08.616Z,22.27
2023-01-21T06:31:36.624Z,21.37
2023-01-21T06:34:04.545Z,19.17
2023-01-21T06:36:32.341Z,20.17
2023-01-21T06:39:00.044Z,26.30
2023-01-21T06:41:27.811Z,21.37
2023-01-21T06:43:56.929Z,22.63
2023-01-21T06:46:24.676Z,19.70
2023-01-21T06:48:53.807Z,21.03
2023-01-21T06:51:21.655Z,25.67
2023-01-21T06:53:49.395Z,27.37
2023-01-21T06:56:17.119Z,23.67
2023-01-21T06:58:44.962Z,22.70
2023-01-21T07:01:14.202Z,22.93
2023-01-21T07:03:41.907Z,21.17
2023-01-21T07:06:09.647Z,22.90
2023-01-21T07:08:37.346Z,21.30
2023-01-21T07:11:05.461Z,18.53
2023-01-21T07:13:33.170Z,21.50
2023-01-21T07:16:01.892Z,22.60
2023-01-21T07:18:31.073Z,21.63
2023-01-21T07:20:59.045Z,21.67
2023-01-21T07:23:26.909Z,24.40
2023-01-21T07:25:54.652Z,32.73
2023-01-21T07:28:22.411Z,27.77
2023-01-21T07:30:50.251Z,26.00
2023-01-21T07:33:18.113Z,25.83
2023-01-21T07:35:47.225Z,25.47
2023-01-21T07:38:14.981Z,21.27
2023-01-21T07:40:42.736Z,22.13
2023-01-21T07:43:10.749Z,20.20
2023-01-21T07:45:38.492Z,21.73
2023-01-21T07:48:06.995Z,21.53
2023-01-21T07:50:35.646Z,26.13
2023-01-21T07:53:05.164Z,20.80
2023-01-21T07:55:34.053Z,20.10
2023-01-21T07:58:01.787Z,24.37
2023-01-21T08:00:31.607Z,21.97
2023-01-21T08:02:59.378Z,22.80
2023-01-21T08:05:28.068Z,27.03
2023-01-21T08:07:58.534Z,23.93
2023-01-21T08:10:28.054Z,24.07
2023-01-21T08:12:55.817Z,22.47
2023-01-21T08:15:23.659Z,22.93
2023-01-21T08:17:51.393Z,22.03
2023-01-21T08:20:19.449Z,26.80
2023-01-21T08:22:47.238Z,25.10
2023-01-21T08:25:15.184Z,17.87
2023-01-21T08:27:44.489Z,23.27
2023-01-21T08:30:13.027Z,20.63
2023-01-21T08:32:40.887Z,24.67
2023-01-21T08:35:09.967Z,24.50
2023-01-21T08:37:39.604Z,25.77
2023-01-21T08:40:08.750Z,23.30
2023-01-21T08:42:36.640Z,21.93
2023-01-21T08:45:07.155Z,20.17
2023-01-21T08:47:34.925Z,27.07
2023-01-21T08:50:02.734Z,21.83
2023-01-21T08:52:30.546Z,23.63
2023-01-21T08:54:58.271Z,23.37
2023-01-21T08:57:26.188Z,24.53
2023-01-21T08:59:54.020Z,22.73
2023-01-21T09:02:23.295Z,23.07
2023-01-21T09:04:51.620Z,24.67
2023-01-21T09:07:19.413Z,23.70
2023-01-21T09:09:49.437Z,24.47
2023-01-21T09:12:17.310Z,22.97
2023-01-21T09:14:45.246Z,28.27
2023-01-21T09:17:13.024Z,26.23
2023-01-21T09:19:42.621Z,24.43
2023-01-21T09:22:10.494Z,28.60
2023-01-21T09:24:38.567Z,28.13
2023-01-21T09:27:07.588Z,26.80
2023-01-21T09:29:35.872Z,27.57
2023-01-21T09:32:05.364Z,27.43
2023-01-21T09:34:35.569Z,25.87
2023-01-21T09:37:05.367Z,29.17
2023-01-21T09:39:33.242Z,26.83
2023-01-21T09:42:01.030Z,24.13
2023-01-21T09:44:32.422Z,29.00
2023-01-21T09:47:05.407Z,28.30
2023-01-21T09:49:37.550Z,29.03
2023-01-21T09:52:22.920Z,28.47
2023-01-21T09:54:50.785Z,30.93
2023-01-21T09:57:34.490Z,26.77
2023-01-21T10:00:22.453Z,31.70
2023-01-21T10:02:58.957Z,30.10
2023-01-21T10:05:50.761Z,27.23
2023-01-21T10:08:28.606Z,28.87
2023-01-21T10:11:09.990Z,29.27
2023-01-21T10:13:56.001Z,26.73
2023-01-21T10:16:29.533Z,30.07
2023-01-21T10:18:59.656Z,32.43
2023-01-21T10:21:33.239Z,26.93
2023-01-21T10:24:07.963Z,28.33
2023-01-21T10:26:36.144Z,33.37
2023-01-21T10:29:04.278Z,29.53
2023-01-21T10:31:40.299Z,30.10
2023-01-21T10:34:14.761Z,29.40
2023-01-21T10:37:08.115Z,27.43
2023-01-21T10:39:47.494Z,27.40
2023-01-21T10:42:38.863Z,31.20
2023-01-21T10:45:17.153Z,28.33
2023-01-21T10:47:51.814Z,33.87
2023-01-21T10:50:39.543Z,26.23
2023-01-21T10:53:14.549Z,28.63
2023-01-21T10:55:56.759Z,28.10
2023-01-21T10:58:30.378Z,26.97
2023-01-21T11:01:01.894Z,25.27
2023-01-21T11:03:38.745Z,25.73
2023-01-21T11:06:09.557Z,24.27
2023-01-21T11:08:39.305Z,26.20
2023-01-21T11:11:09.722Z,26.53
2023-01-21T11:13:37.586Z,22.50
2023-01-21T11:16:06.135Z,28.00
2023-01-21T11:18:37.979Z,28.13
2023-01-21T11:21:16.962Z,30.47
2023-01-21T11:23:55.023Z,27.57
2023-01-21T11:26:28.155Z,27.23
2023-01-21T11:29:14.383Z,33.33
2023-01-21T11:31:43.395Z,29.60
2023-01-21T11:34:15.506Z,30.57
2023-01-21T11:36:56.734Z,27.67
2023-01-21T11:39:25.052Z,31.20
2023-01-21T11:41:55.512Z,30.83
2023-01-21T11:44:24.383Z,27.30
2023-01-21T11:46:52.867Z,26.50
2023-01-21T11:49:27.085Z,25.00
2023-01-21T11:52:15.577Z,29.73
2023-01-21T11:54:44.198Z,26.50
2023-01-21T11:57:34.756Z,26.33
2023-01-21T12:00:09.646Z,25.80
2023-01-21T12:02:42.925Z,26.20
2023-01-21T12:05:16.934Z,25.23
2023-01-21T12:07:50.489Z,20.47
2023-01-21T12:10:27.533Z,25.73
2023-01-21T12:13:15.556Z,23.20
2023-01-21T12:16:03.670Z,24.40
2023-01-21T12:18:54.609Z,23.90
2023-01-21T12:21:38.506Z,22.90
2023-01-21T12:24:20.295Z,25.13
2023-01-21T12:26:53.991Z,24.83
2023-01-21T12:29:44.278Z,20.20
2023-01-21T12:32:16.776Z,20.70
2023-01-21T12:34:49.089Z,24.43
2023-01-21T12:37:25.037Z,25.47
2023-01-21T12:39:56.987Z,25.03
2023-01-21T12:42:29.442Z,24.70
2023-01-21T12:45:08.117Z,23.97
2023-01-21T12:47:43.931Z,25.07
2023-01-21T12:50:21.579Z,24.67
2023-01-21T12:53:12.630Z,20.87
2023-01-21T12:56:05.496Z,23.03
2023-01-21T12:58:40.486Z,23.73
2023-01-21T13:01:15.732Z,23.03
2023-01-21T13:03:54.371Z,21.60
2023-01-21T13:06:47.200Z,20.73
2023-01-21T13:09:32.281Z,22.90
2023-01-21T13:12:11.827Z,27.57
2023-01-21T13:14:48.262Z,21.87
2023-01-21T13:17:31.664Z,21.60
2023-01-21T13:20:03.006Z,20.40
2023-01-21T13:22:41.039Z,23.03
2023-01-21T13:25:27.682Z,24.63
2023-01-21T13:28:06.519Z,20.73
2023-01-21T13:30:42.299Z,23.17
2023-01-21T13:33:32.333Z,24.23
2023-01-21T13:36:10.001Z,21.83
2023-01-21T13:38:47.237Z,23.37
2023-01-21T13:41:29.488Z,23.93
2023-01-21T13:44:16.551Z,23.47
2023-01-21T13:46:57.487Z,21.27
2023-01-21T13:50:05.384Z,24.97
2023-01-21T13:52:45.157Z,22.13
2023-01-21T13:55:27.471Z,25.37
2023-01-21T13:58:02.907Z,21.23
2023-01-21T14:00:35.036Z,22.70
2023-01-21T14:03:12.708Z,20.03
2023-01-21T14:05:44.525Z,22.00
2023-01-21T14:08:18.612Z,23.90
2023-01-21T14:10:52.006Z,19.43
2023-01-21T14:13:42.359Z,20.77
2023-01-21T14:16:42.690Z,19.93
2023-01-21T14:19:38.938Z,20.93
2023-01-21T14:22:22.171Z,22.77
2023-01-21T14:25:03.175Z,19.57
2023-01-21T14:27:40.821Z,23.90
2023-01-21T14:30:15.038Z,22.40
2023-01-21T14:32:50.285Z,26.37
2023-01-21T14:35:22.561Z,20.00
2023-01-21T14:37:58.184Z,24.10
2023-01-21T14:40:30.473Z,23.50
2023-01-21T14:42:59.147Z,22.67
2023-01-21T14:45:54.256Z,21.90
2023-01-21T14:48:32.989Z,24.50
2023-01-21T14:51:14.277Z,24.73
2023-01-21T14:53:48.667Z,25.23
2023-01-21T14:56:26.209Z,24.87
2023-01-21T14:58:57.108Z,23.40
2023-01-21T15:01:31.917Z,25.20
2023-01-21T15:04:02.597Z,22.43
2023-01-21T15:06:30.913Z,24.13
2023-01-21T15:09:01.504Z,25.67
2023-01-21T15:11:32.991Z,21.20
2023-01-21T15:14:07.345Z,26.33
2023-01-21T15:16:37.203Z,24.73
2023-01-21T15:19:27.954Z,31.77
2023-01-21T15:22:20.716Z,22.27
2023-01-21T15:25:25.118Z,26.00
2023-01-21T15:28:43.535Z,23.90
2023-01-21T15:31:34.518Z,22.57
2023-01-21T15:34:08.482Z,23.53
2023-01-21T15:36:47.069Z,22.00
2023-01-21T15:39:17.326Z,24.23
2023-01-21T15:41:58.031Z,25.27
2023-01-21T15:44:45.225Z,23.70
2023-01-21T15:47:36.585Z,29.67
2023-01-21T15:50:10.050Z,41.10
2023-01-21T15:52:53.585Z,40.53
2023-01-21T15:55:40.752Z,37.63
2023-01-21T15:58:16.615Z,32.63
2023-01-21T16:00:51.300Z,26.97
2023-01-21T16:03:26.400Z,23.47
2023-01-21T16:06:02.869Z,23.60
2023-01-21T16:09:03.148Z,26.63
2023-01-21T16:11:49.802Z,24.93
2023-01-21T16:14:32.031Z,23.33
2023-01-21T16:17:07.708Z,32.03
2023-01-21T16:19:41.159Z,31.20
2023-01-21T16:22:13.260Z,30.97
2023-01-21T16:24:44.827Z,44.60
2023-01-21T16:27:18.465Z,54.93
2023-01-21T16:29:46.353Z,32.83
2023-01-21T16:32:19.325Z,33.90
2023-01-21T16:34:48.907Z,40.63
2023-01-21T16:37:20.138Z,63.70
2023-01-21T16:39:48.546Z,88.37
2023-01-21T16:42:30.084Z,67.37
2023-01-21T16:44:59.047Z,39.23
2023-01-21T16:47:28.926Z,29.27
2023-01-21T16:49:58.498Z,20.73
2023-01-21T16:52:26.647Z,26.57
2023-01-21T16:54:55.503Z,22.27
2023-01-21T16:57:31.595Z,25.30
2023-01-21T17:00:02.630Z,20.87
2023-01-21T17:02:32.795Z,19.70
2023-01-21T17:05:07.116Z,19.47
2023-01-21T17:07:43.876Z,19.30
2023-01-21T17:10:25.602Z,23.03
2023-01-21T17:12:57.139Z,18.77
2023-01-21T17:15:33.323Z,17.70
2023-01-21T17:18:04.857Z,19.97
2023-01-21T17:20:43.894Z,18.83
2023-01-21T17:23:23.077Z,18.10
2023-01-21T17:25:57.839Z,19.90
2023-01-21T17:28:33.263Z,17.43
2023-01-21T17:31:23.037Z,19.77
2023-01-21T17:34:10.493Z,20.37
2023-01-21T17:36:47.632Z,17.20
2023-01-21T17:39:18.054Z,18.50
2023-01-21T17:41:46.603Z,17.03
2023-01-21T17:44:22.689Z,19.30
2023-01-21T17:46:54.866Z,17.63
2023-01-21T17:49:25.700Z,15.90
2023-01-21T17:51:57.601Z,13.00
2023-01-21T17:54:31.566Z,17.20
2023-01-21T17:57:04.541Z,16.03
2023-01-21T17:59:41.592Z,16.53
2023-01-21T18:02:15.003Z,17.90
2023-01-21T18:04:49.483Z,18.47
2023-01-21T18:07:24.875Z,19.67
2023-01-21T18:09:59.578Z,19.93
2023-01-21T18:12:31.177Z,19.23
2023-01-21T18:15:03.855Z,20.80
2023-01-21T18:17:33.771Z,21.80
2023-01-21T18:20:03.144Z,18.27
2023-01-21T18:22:36.228Z,22.77
2023-01-21T18:25:05.344Z,16.70
2023-01-21T18:27:34.226Z,17.47
2023-01-21T18:30:02.892Z,18.47
2023-01-21T18:32:34.133Z,17.70
2023-01-21T18:35:04.024Z,19.67
2023-01-21T18:37:35.294Z,19.93
2023-01-21T18:40:06.701Z,20.43
2023-01-21T18:42:35.526Z,21.37
2023-01-21T18:45:04.354Z,20.50
2023-01-21T18:47:32.793Z,22.53
2023-01-21T18:50:03.696Z,23.60
2023-01-21T18:52:34.299Z,25.77
2023-01-21T18:55:04.300Z,25.53
2023-01-21T18:57:35.955Z,22.13
2023-01-21T19:00:07.851Z,17.83
2023-01-21T19:02:35.697Z,23.23
2023-01-21T19:05:06.701Z,24.60
2023-01-21T19:07:38.106Z,22.07
2023-01-21T19:10:07.998Z,23.50
2023-01-21T19:12:38.059Z,26.00
2023-01-21T19:15:10.170Z,26.63
2023-01-21T19:17:44.166Z,20.57
2023-01-21T19:20:21.545Z,21.77
2023-01-21T19:22:59.786Z,22.63
2023-01-21T19:25:30.129Z,24.93
2023-01-21T19:28:05.999Z,25.97
2023-01-21T19:30:34.495Z,25.40
2023-01-21T19:33:06.013Z,25.27
2023-01-21T19:35:39.931Z,26.63
2023-01-21T19:38:19.933Z,24.00
2023-01-21T19:40:52.756Z,27.10
2023-01-21T19:43:24.698Z,26.97
2023-01-21T19:45:55.902Z,28.50
2023-01-21T19:48:24.448Z,28.00
2023-01-21T19:50:54.412Z,29.10
2023-01-21T19:53:24.535Z,27.03
2023-01-21T19:55:53.096Z,24.93
2023-01-21T19:58:24.710Z,22.50
2023-01-21T20:00:56.267Z,24.47
2023-01-21T20:03:27.864Z,24.80
2023-01-21T20:06:03.771Z,25.43
2023-01-21T20:08:37.669Z,27.83
2023-01-21T20:11:06.251Z,29.93
2023-01-21T20:13:37.752Z,29.30
2023-01-21T20:16:15.874Z,27.00
2023-01-21T20:18:46.169Z,25.67
2023-01-21T20:21:14.598Z,31.73
2023-01-21T20:23:44.542Z,26.17
2023-01-21T20:26:25.190Z,30.93
2023-01-21T20:28:54.691Z,25.83
2023-01-21T20:31:24.412Z,29.07
2023-01-21T20:33:54.241Z,30.47
2023-01-21T20:36:25.940Z,29.13
2023-01-21T20:38:56.659Z,26.77
2023-01-21T20:41:25.877Z,27.87
2023-01-21T20:43:54.451Z,29.30
2023-01-21T20:46:26.959Z,28.47
2023-01-21T20:48:59.097Z,29.40
2023-01-21T20:51:30.933Z,31.83
2023-01-21T20:54:04.523Z,28.70
2023-01-21T20:56:34.065Z,30.20
2023-01-21T20:59:04.162Z,25.47
2023-01-21T21:01:34.958Z,21.40
2023-01-21T21:04:04.497Z,28.87
2023-01-21T21:06:34.646Z,26.33
2023-01-21T21:09:04.509Z,27.33
2023-01-21T21:11:35.115Z,26.40
2023-01-21T21:14:04.257Z,26.77
2023-01-21T21:16:34.238Z,30.53
2023-01-21T21:19:04.824Z,25.80
2023-01-21T21:21:34.356Z,31.63
2023-01-21T21:24:06.551Z,24.27
2023-01-21T21:26:35.781Z,25.20
2023-01-21T21:29:03.910Z,29.70
2023-01-21T21:31:34.349Z,31.47
2023-01-21T21:34:04.957Z,22.27
2023-01-21T21:36:34.884Z,19.17
2023-01-21T21:39:06.289Z,28.03
2023-01-21T21:41:53.068Z,23.03
2023-01-21T21:44:25.501Z,25.80
2023-01-21T21:47:12.111Z,19.57
2023-01-21T21:49:43.352Z,22.23
2023-01-21T21:52:20.098Z,19.67
2023-01-21T21:54:54.333Z,24.70
2023-01-21T21:57:24.464Z,18.20
2023-01-21T21:59:54.551Z,21.80
2023-01-21T22:02:23.365Z,19.13
2023-01-21T22:04:55.016Z,18.30
2023-01-21T22:07:24.402Z,17.50
2023-01-21T22:09:56.505Z,23.50
2023-01-21T22:12:24.810Z,19.03
2023-01-21T22:14:56.559Z,16.93
2023-01-21T22:17:30.558Z,21.70
2023-01-21T22:20:03.521Z,18.23
2023-01-21T22:22:35.415Z,21.53
2023-01-21T22:25:04.909Z,18.50
2023-01-21T22:27:36.867Z,19.53
2023-01-21T22:30:08.453Z,15.30
2023-01-21T22:32:36.241Z,23.97
2023-01-21T22:35:05.069Z,15.80
2023-01-21T22:37:33.374Z,21.40
2023-01-21T22:40:05.123Z,14.90
2023-01-21T22:42:33.202Z,18.07
2023-01-21T22:45:01.043Z,16.57
2023-01-21T22:47:31.947Z,17.83
2023-01-21T22:50:04.812Z,17.37
2023-01-21T22:52:34.507Z,18.47
2023-01-21T22:55:04.280Z,19.47
2023-01-21T22:57:34.278Z,16.50
2023-01-21T23:00:03.335Z,17.80
2023-01-21T23:02:35.776Z,23.83
2023-01-21T23:05:04.750Z,17.33
2023-01-21T23:07:34.852Z,17.13
2023-01-21T23:10:04.695Z,12.87
2023-01-21T23:12:33.395Z,16.47
2023-01-21T23:15:03.312Z,14.13
2023-01-21T23:17:34.451Z,12.80
2023-01-21T23:20:04.867Z,15.47
2023-01-21T23:22:34.686Z,15.07
2023-01-21T23:25:07.380Z,14.60
2023-01-21T23:27:35.567Z,16.53
2023-01-21T23:30:04.828Z,16.27
2023-01-21T23:32:33.580Z,12.63
2023-01-21T23:35:04.730Z,14.57
2023-01-21T23:37:34.771Z,14.20
2023-01-21T23:40:04.983Z,18.23
2023-01-21T23:42:34.726Z,14.20
2023-01-21T23:45:03.867Z,12.63
2023-01-21T23:47:34.519Z,13.93
2023-01-21T23:50:12.316Z,13.37
2023-01-21T23:52:42.217Z,15.93
2023-01-21T23:55:16.082Z,12.70
2023-01-21T23:57:44.994Z,13.73
